^^
Weather Station Historical Data
 
Daily Summary for September 04, 2026 Units:  English    Metric   Both
Daily Weekly Monthly Yearly
  Current: High: Low: Average:
Temperature: 66.6 °F 83.2 °F 60.3 °F 69.8 °F
Dew Point: 53 °F 56.7 °F 49.8 °F 53.2 °F
Humidity: 61.6% 86% 33% 58%
Wind Speed: 1.7mph 9.8mph 0mph 2.4mph
Wind Gust: 3.4mph 22.8mph - -
WindSouth - - SSW
Pressure: 30.28 in 30.30 in 30.22 in -
Precipitation: 0.02 in      
 
 
Tabular Data for September 04, 2026
Time Temperature Dew Point Pressure Wind Wind Speed Wind Gust Humidity Rainfall Rate (Hourly) solar
00:09 66.3 °F 50.2 °F 30.24 in WNW 0.5 mph 1.1 mph 56% 0.00 in 0 W/m2
00:14 66.1 °F 50.4 °F 30.25 in WNW 0.4 mph 1.1 mph 56.7% 0.00 in 0 W/m2
00:19 65.7 °F 50.8 °F 30.25 in WNW 0.2 mph 1.1 mph 58.7% 0.00 in 0 W/m2
00:24 65 °F 50.9 °F 30.24 in Calm   1.1 mph 60.4% 0.00 in 0 W/m2
00:29 64.5 °F 50.8 °F 30.24 in Calm     61% 0.00 in 0 W/m2
00:34 64.5 °F 50.6 °F 30.24 in NW 0.6 mph 1.1 mph 60.6% 0.00 in 0 W/m2
00:39 64.6 °F 50.7 °F 30.24 in NW 0.3 mph 1.1 mph 60.6% 0.00 in 0 W/m2
00:44 64.1 °F 50.7 °F 30.24 in Calm     62% 0.00 in 0 W/m2
00:49 63.6 °F 50.3 °F 30.24 in SW 0.2 mph 1.1 mph 62% 0.00 in 0 W/m2
00:54 63.8 °F 50.3 °F 30.24 in SSE 0.2 mph 1.1 mph 61.4% 0.00 in 0 W/m2
00:59 63.9 °F 50.3 °F 30.25 in NE 0.4 mph 1.1 mph 61.2% 0.00 in 0 W/m2
01:04 63.8 °F 50.4 °F 30.24 in ESE 0.7 mph 2.2 mph 61.9% 0.00 in 0 W/m2
01:09 63.9 °F 50.3 °F 30.24 in NNE 0.5 mph 1.1 mph 61.1% 0.00 in 0 W/m2
01:14 64 °F 50.5 °F 30.24 in North 0.7 mph 1.1 mph 61.5% 0.00 in 0 W/m2
01:19 63.9 °F 50.4 °F 30.24 in NE 0.8 mph 1.1 mph 61.6% 0.00 in 0 W/m2
01:24 64.4 °F 50.4 °F 30.24 in ESE 0.5 mph 1.1 mph 60.3% 0.00 in 0 W/m2
01:29 65 °F 50.5 °F 30.24 in North 0.7 mph 1.1 mph 59.2% 0.00 in 0 W/m2
01:34 65 °F 50.5 °F 30.24 in North 0.2 mph 1.1 mph 59.2% 0.00 in 0 W/m2
01:39 65.5 °F 49.8 °F 30.24 in South 0.7 mph 1.1 mph 56.8% 0.00 in 0 W/m2
01:44 65.8 °F 49.9 °F 30.24 in ESE 0.8 mph 2.2 mph 56.3% 0.00 in 0 W/m2
01:49 65.5 °F 51 °F 30.24 in West 0.7 mph 2.2 mph 59.6% 0.00 in 0 W/m2
01:54 64 °F 50.7 °F 30.23 in WNW 0.3 mph 1.1 mph 62.1% 0.00 in 0 W/m2
01:59 64.3 °F 50.1 °F 30.24 in WNW 0.1 mph 1.1 mph 59.9% 0.00 in 0 W/m2
02:04 64.8 °F 50.4 °F 30.24 in WNW 0.3 mph 1.1 mph 59.3% 0.00 in 0 W/m2
02:09 65.1 °F 50.5 °F 30.23 in WNW 0.6 mph 1.1 mph 59.1% 0.00 in 0 W/m2
02:14 65.1 °F 50.1 °F 30.23 in WNW 0.1 mph 1.1 mph 58.1% 0.00 in 0 W/m2
02:19 65.2 °F 50.6 °F 30.23 in Calm   1.1 mph 59.1% 0.00 in 0 W/m2
02:24 64.9 °F 50.7 °F 30.23 in NW 0.3 mph 1.1 mph 59.9% 0.00 in 0 W/m2
02:29 65.1 °F 50.9 °F 30.23 in NW 0.2 mph 1.1 mph 60% 0.00 in 0 W/m2
02:34 65.1 °F 50.9 °F 30.23 in WNW 0.2 mph 1.1 mph 60% 0.00 in 0 W/m2
02:39 65.3 °F 51.1 °F 30.23 in NW 0.1 mph 1.1 mph 60.1% 0.00 in 0 W/m2
02:44 65.3 °F 51.2 °F 30.23 in Calm   1.1 mph 60.2% 0.00 in 0 W/m2
02:49 65.3 °F 51.1 °F 30.23 in Calm     59.9% 0.00 in 0 W/m2
02:54 65.5 °F 51.7 °F 30.23 in SW 0.4 mph 1.1 mph 61.3% 0.00 in 0 W/m2
02:59 65 °F 52.6 °F 30.23 in SW 0.3 mph 1.1 mph 64.1% 0.00 in 0 W/m2
03:04 64.6 °F 53.3 °F 30.24 in WSW 0.5 mph 2.2 mph 66.8% 0.00 in 0 W/m2
03:09 64.2 °F 54.2 °F 30.24 in WSW 1 mph 2.2 mph 69.7% 0.00 in 0 W/m2
03:14 63.9 °F 53.1 °F 30.24 in SW 0.7 mph 2.2 mph 68% 0.00 in 0 W/m2
03:19 63.7 °F 55.9 °F 30.24 in SE 0.5 mph 2.2 mph 75.7% 0.00 in 0 W/m2
03:24 62.2 °F 55.6 °F 30.24 in NE 1.2 mph 3.4 mph 78.9% 0.00 in 0 W/m2
03:29 61.8 °F 55.2 °F 30.23 in East 2.3 mph 4.5 mph 78.7% 0.00 in 0 W/m2
03:34 62.3 °F 55.4 °F 30.23 in ESE 3 mph 4.5 mph 77.8% 0.00 in 0 W/m2
03:39 62.5 °F 55.4 °F 30.23 in ESE 2.9 mph 5.8 mph 77.4% 0.00 in 0 W/m2
03:44 63 °F 54.6 °F 30.23 in ESE 3.4 mph 5.8 mph 73.9% 0.00 in 0 W/m2
03:49 63.8 °F 54.3 °F 30.23 in ESE 2.9 mph 5.8 mph 71.1% 0.00 in 0 W/m2
03:54 64 °F 54.3 °F 30.23 in ESE 2.9 mph 5.8 mph 70.6% 0.00 in 0 W/m2
03:59 64.2 °F 54.5 °F 30.23 in ESE 2.9 mph 5.8 mph 70.6% 0.00 in 0 W/m2
04:04 64.3 °F 54.4 °F 30.23 in ESE 4 mph 8.1 mph 70.2% 0.00 in 0 W/m2
04:09 64.7 °F 54.1 °F 30.23 in East 2.6 mph 5.8 mph 68.5% 0.00 in 0 W/m2
04:14 64.5 °F 54.1 °F 30.23 in East 2.5 mph 5.8 mph 69.1% 0.00 in 0 W/m2
04:19 64.4 °F 54.3 °F 30.23 in East 2.7 mph 4.5 mph 69.6% 0.00 in 0 W/m2
04:24 64.1 °F 54.7 °F 30.23 in ESE 3.7 mph 6.9 mph 71.3% 0.00 in 0 W/m2
04:29 63.7 °F 54.6 °F 30.24 in East 2.9 mph 5.8 mph 72.2% 0.00 in 0 W/m2
04:34 63.8 °F 54.7 °F 30.23 in ESE 2.1 mph 4.5 mph 72.2% 0.00 in 0 W/m2
04:39 63.7 °F 54.9 °F 30.24 in SSE 1.3 mph 3.4 mph 73% 0.00 in 0 W/m2
04:44 63.7 °F 54.7 °F 30.24 in SSW 2.4 mph 5.8 mph 72.6% 0.05 in 0 W/m2
04:49 63.6 °F 54.7 °F 30.24 in SSW 2.2 mph 5.8 mph 72.7% 0.05 in 0 W/m2
04:54 63.5 °F 54.3 °F 30.24 in South 3.2 mph 6.9 mph 71.9% 0.05 in 0 W/m2
04:59 63.8 °F 54.2 °F 30.24 in South 2.9 mph 6.9 mph 70.9% 0.00 in 0 W/m2
05:04 63.8 °F 54.4 °F 30.24 in SSW 3.6 mph 6.9 mph 71.6% 0.00 in 0 W/m2
05:09 63.3 °F 54.8 °F 30.24 in SSW 2.3 mph 5.8 mph 73.6% 0.00 in 0 W/m2
05:14 63.1 °F 54.9 °F 30.24 in SW 1 mph 3.4 mph 74.4% 0.00 in 0 W/m2
05:19 63 °F 54.9 °F 30.24 in SSW 0.9 mph 2.2 mph 75.2% 0.00 in 0 W/m2
05:24 62.8 °F 54.8 °F 30.25 in SSW 1.5 mph 3.4 mph 75.3% 0.00 in 0 W/m2
05:29 63 °F 55.6 °F 30.25 in South 1.7 mph 3.4 mph 76.9% 0.00 in 0 W/m2
05:34 62 °F 55.9 °F 30.25 in SSW 1.7 mph 3.4 mph 80.6% 0.00 in 0 W/m2
05:39 61.4 °F 56.2 °F 30.25 in SSW 0.9 mph 3.4 mph 83.1% 0.07 in 0 W/m2
05:44 61 °F 56.7 °F 30.25 in SSW 0.4 mph 1.1 mph 85.6% 0.07 in 0 W/m2
05:49 60.5 °F 56.4 °F 30.25 in WSW 0.4 mph 2.2 mph 86% 0.07 in 0 W/m2
05:54 60.3 °F 55.8 °F 30.25 in SW 0.3 mph 1.1 mph 85.1% 0.00 in 0 W/m2
05:59 60.6 °F 55 °F 30.25 in SSW 1.2 mph 3.4 mph 82.1% 0.00 in 0 W/m2
06:04 60.8 °F 55.8 °F 30.25 in South 1.2 mph 3.4 mph 83.6% 0.00 in 0 W/m2
06:09 60.5 °F 55.3 °F 30.25 in South 1.8 mph 4.5 mph 82.9% 0.00 in 0 W/m2
06:14 60.8 °F 55.2 °F 30.26 in SSW 1.4 mph 3.4 mph 82% 0.00 in 0 W/m2
06:19 60.8 °F 55.2 °F 30.25 in SSW 1.4 mph 3.4 mph 81.8% 0.00 in 0.1 W/m2
06:24 61 °F 55.1 °F 30.26 in SSW 0.8 mph 3.4 mph 81.2% 0.00 in 0.2 W/m2
06:29 61.2 °F 55.2 °F 30.25 in SSW 0.6 mph 2.2 mph 81% 0.00 in 0.6 W/m2
06:34 61.2 °F 55.2 °F 30.25 in SW 0.2 mph 1.1 mph 81.1% 0.00 in 1.2 W/m2
06:39 61.1 °F 55.4 °F 30.26 in SSW 0.5 mph 2.2 mph 81.8% 0.00 in 1.9 W/m2
06:44 61 °F 55.2 °F 30.26 in SSW 0.9 mph 2.2 mph 81.6% 0.00 in 3 W/m2
06:49 61.2 °F 55 °F 30.26 in SSW 0.8 mph 2.2 mph 80% 0.00 in 5 W/m2
06:54 61.2 °F 55 °F 30.26 in SSW 1.1 mph 2.2 mph 80.1% 0.00 in 8.7 W/m2
06:59 61.2 °F 54.9 °F 30.26 in SSE 2.3 mph 4.5 mph 79.6% 0.00 in 13.2 W/m2
07:04 61.9 °F 54.6 °F 30.26 in SSE 2.2 mph 4.5 mph 77.2% 0.00 in 17.9 W/m2
07:09 62.1 °F 55.2 °F 30.26 in South 1.2 mph 3.4 mph 78.2% 0.00 in 22.5 W/m2
07:14 61.6 °F 55.2 °F 30.26 in South 1.9 mph 4.5 mph 79.1% 0.00 in 27.2 W/m2
07:19 61.7 °F 55.2 °F 30.27 in South 1.6 mph 3.4 mph 78.9% 0.00 in 32.1 W/m2
07:24 62.1 °F 55.2 °F 30.27 in SSE 2 mph 3.4 mph 78% 0.00 in 30.4 W/m2
07:29 62.2 °F 55 °F 30.27 in SSE 1.6 mph 3.4 mph 77.1% 0.00 in 29.4 W/m2
07:34 62.4 °F 55 °F 30.27 in SSE 1 mph 2.2 mph 77.1% 0.00 in 30.1 W/m2
07:39 62.5 °F 55.1 °F 30.28 in South 0.8 mph 2.2 mph 77.1% 0.00 in 39.9 W/m2
07:44 62.9 °F 55.1 °F 30.28 in South 1.1 mph 2.2 mph 75.9% 0.00 in 43.3 W/m2
07:49 63.3 °F 54.8 °F 30.28 in South 1.5 mph 3.4 mph 73.8% 0.00 in 55.2 W/m2
07:54 64.1 °F 54.8 °F 30.28 in SE 1.5 mph 3.4 mph 71.7% 0.00 in 57.6 W/m2
07:59 64.4 °F 55.1 °F 30.28 in SSE 0.9 mph 2.2 mph 71.6% 0.00 in 50.7 W/m2
08:04 64.4 °F 55.2 °F 30.29 in South 1.1 mph 2.2 mph 71.9% 0.00 in 49.2 W/m2
08:09 64.3 °F 55.1 °F 30.29 in South 0.4 mph 2.2 mph 71.9% 0.00 in 54.1 W/m2
08:14 64.2 °F 55.5 °F 30.28 in Calm     73.3% 0.00 in 60.9 W/m2
08:19 64.2 °F 55.6 °F 30.28 in Calm   1.1 mph 73.5% 0.00 in 71.7 W/m2
08:24 64.4 °F 55.7 °F 30.29 in SSW 0.8 mph 2.2 mph 73.3% 0.00 in 78 W/m2
08:29 64.6 °F 55.6 °F 30.29 in South 1.1 mph 2.2 mph 72.5% 0.00 in 68.4 W/m2
08:34 64.7 °F 55.5 °F 30.29 in South 1 mph 2.2 mph 71.9% 0.00 in 87 W/m2
08:39 65 °F 55.7 °F 30.29 in SSW 1.1 mph 3.4 mph 71.6% 0.00 in 81.7 W/m2
08:44 65.2 °F 55.5 °F 30.29 in South 1.4 mph 3.4 mph 70.6% 0.00 in 98.5 W/m2
08:49 65.5 °F 55.2 °F 30.29 in SSW 1.1 mph 3.4 mph 69.4% 0.00 in 103.4 W/m2
08:54 65.8 °F 55.4 °F 30.29 in SSW 0.4 mph 1.1 mph 69.3% 0.00 in 112.4 W/m2
08:59 66 °F 54.5 °F 30.29 in SSW 1 mph 2.2 mph 66.6% 0.00 in 122.6 W/m2
09:04 66.4 °F 54.9 °F 30.29 in SSW 1.1 mph 2.2 mph 66.7% 0.00 in 131.6 W/m2
09:09 66.5 °F 54.3 °F 30.29 in SSW 1.4 mph 3.4 mph 64.6% 0.00 in 133.2 W/m2
09:14 66.6 °F 53.7 °F 30.29 in SW 1.6 mph 4.5 mph 63.2% 0.00 in 142.1 W/m2
09:19 66.6 °F 53.6 °F 30.30 in SW 1.1 mph 2.2 mph 62.9% 0.00 in 157.1 W/m2
09:24 67 °F 53.5 °F 30.30 in SSW 2.2 mph 4.5 mph 62% 0.00 in 176.4 W/m2
09:29 67.2 °F 53.5 °F 30.30 in SSW 2.2 mph 4.5 mph 61.4% 0.00 in 162.1 W/m2
09:34 67.4 °F 53.3 °F 30.30 in SW 2.1 mph 5.8 mph 60.5% 0.00 in 214.4 W/m2
09:39 67.2 °F 52.7 °F 30.29 in SW 2.1 mph 3.4 mph 59.6% 0.00 in 375.8 W/m2
09:44 67.8 °F 52.3 °F 30.30 in WSW 2.5 mph 4.5 mph 57.6% 0.00 in 383.9 W/m2
09:49 68 °F 52.4 °F 30.30 in WSW 2 mph 4.5 mph 57.3% 0.00 in 338 W/m2
09:54 68.4 °F 52.2 °F 30.30 in SSW 1.9 mph 4.5 mph 56.3% 0.00 in 380.1 W/m2
09:59 68.7 °F 52 °F 30.30 in WSW 1.5 mph 3.4 mph 55.3% 0.00 in 357.3 W/m2
10:04 68.8 °F 52.4 °F 30.29 in NW 0.9 mph 2.2 mph 55.8% 0.00 in 352.2 W/m2
10:09 68.4 °F 51.8 °F 30.30 in NW 0.9 mph 2.2 mph 55.1% 0.00 in 403.2 W/m2
10:14 69.5 °F 52 °F 30.30 in WNW 1.2 mph 2.2 mph 53.7% 0.00 in 471.9 W/m2
10:19 70.1 °F 52.2 °F 30.30 in WNW 1.6 mph 3.4 mph 53.1% 0.00 in 425.8 W/m2
10:24 70.3 °F 52.6 °F 30.30 in West 1.3 mph 3.4 mph 53.4% 0.00 in 274.5 W/m2
10:29 70.1 °F 52.5 °F 30.30 in North 1 mph 3.4 mph 53.6% 0.00 in 307.6 W/m2
10:34 70.2 °F 52.9 °F 30.29 in NNW 1.4 mph 5.8 mph 54.3% 0.00 in 211.3 W/m2
10:39 70.5 °F 52.8 °F 30.30 in West 0.6 mph 3.4 mph 53.4% 0.00 in 226.4 W/m2
10:44 70.6 °F 52.7 °F 30.30 in WNW 1.9 mph 4.5 mph 52.9% 0.00 in 241.8 W/m2
10:49 70.6 °F 52.8 °F 30.30 in NW 1.4 mph 4.5 mph 53.2% 0.00 in 265.7 W/m2
10:54 70.7 °F 52 °F 30.30 in WSW 1.3 mph 3.4 mph 51.5% 0.00 in 256.2 W/m2
10:59 71 °F 52.2 °F 30.30 in WSW 0.9 mph 2.2 mph 51.5% 0.00 in 230.6 W/m2
11:04 71.3 °F 52.6 °F 30.30 in NW 1.6 mph 4.5 mph 51.7% 0.00 in 228.8 W/m2
11:09 71.3 °F 52.4 °F 30.30 in WNW 2 mph 5.8 mph 51.3% 0.00 in 227.8 W/m2
11:14 71.3 °F 52.3 °F 30.30 in NNW 1.8 mph 3.4 mph 51.1% 0.00 in 202 W/m2
11:19 71.1 °F 52 °F 30.30 in North 1.1 mph 2.2 mph 50.9% 0.00 in 252.8 W/m2
11:24 71.1 °F 51.8 °F 30.30 in SSW 1.6 mph 4.5 mph 50.4% 0.00 in 285 W/m2
11:29 71.7 °F 51.6 °F 30.30 in West 1.9 mph 5.8 mph 49.2% 0.00 in 290.5 W/m2
11:34 71.7 °F 51.3 °F 30.30 in West 2.4 mph 4.5 mph 48.4% 0.00 in 448.6 W/m2
11:39 72.3 °F 53.2 °F 30.30 in SSW 2.3 mph 5.8 mph 51% 0.00 in 419.8 W/m2
11:44 72.3 °F 54.9 °F 30.30 in SSW 5.2 mph 11.4 mph 54.3% 0.00 in 335 W/m2
11:49 71.3 °F 54.5 °F 30.30 in SSW 5.2 mph 11.4 mph 55.2% 0.00 in 330.8 W/m2
11:54 71.2 °F 54 °F 30.30 in SW 3.1 mph 6.9 mph 54.4% 0.00 in 424.8 W/m2
11:59 72 °F 54.2 °F 30.30 in WSW 3.4 mph 6.9 mph 53.2% 0.00 in 790.6 W/m2
12:04 72.4 °F 54.6 °F 30.30 in WSW 2.7 mph 6.9 mph 53.3% 0.00 in 346.9 W/m2
12:09 72.5 °F 54.6 °F 30.30 in West 1.6 mph 5.8 mph 53.2% 0.00 in 224.6 W/m2
12:14 72.2 °F 53.9 °F 30.30 in WSW 2 mph 6.9 mph 52.5% 0.00 in 314.8 W/m2
12:19 71.8 °F 53.4 °F 30.30 in WSW 2.2 mph 4.5 mph 52.2% 0.00 in 440 W/m2
12:24 72.1 °F 53.4 °F 30.30 in SSW 2.6 mph 4.5 mph 51.6% 0.00 in 298.4 W/m2
12:29 71.8 °F 52.6 °F 30.30 in SSW 2.6 mph 6.9 mph 50.9% 0.00 in 632.7 W/m2
12:34 72.5 °F 52.7 °F 30.30 in SSW 2.3 mph 6.9 mph 49.6% 0.00 in 838.8 W/m2
12:39 72.6 °F 51.7 °F 30.29 in WSW 0.7 mph 3.4 mph 47.8% 0.00 in 762.6 W/m2
12:44 74.3 °F 52.8 °F 30.29 in WNW 2.5 mph 6.9 mph 47% 0.00 in 770.7 W/m2
12:49 74.8 °F 53.5 °F 30.30 in SE 2.6 mph 6.9 mph 47.5% 0.00 in 709.6 W/m2
12:54 75.3 °F 53.3 °F 30.29 in SSW 2 mph 4.5 mph 46.3% 0.00 in 676.2 W/m2
12:59 76.2 °F 53.8 °F 30.29 in SSW 3.2 mph 10.3 mph 45.8% 0.00 in 761.7 W/m2
13:04 76 °F 53.8 °F 30.29 in SE 4.6 mph 8.1 mph 46.1% 0.00 in 735.2 W/m2
13:09 74.9 °F 53.1 °F 30.28 in SE 3.4 mph 8.1 mph 46.7% 0.00 in 695.8 W/m2
13:14 75.7 °F 52.9 °F 30.28 in South 3 mph 9.2 mph 44.9% 0.00 in 754.4 W/m2
13:19 76.8 °F 53.1 °F 30.28 in South 2.5 mph 5.8 mph 43.7% 0.00 in 801 W/m2
13:24 77.9 °F 53.2 °F 30.28 in SW 2.3 mph 5.8 mph 42.4% 0.00 in 800.6 W/m2
13:29 77.6 °F 53.1 °F 30.28 in SSE 3.4 mph 8.1 mph 42.5% 0.00 in 761.1 W/m2
13:34 76.2 °F 52.4 °F 30.28 in South 2.5 mph 8.1 mph 43.5% 0.00 in 708.3 W/m2
13:39 76.3 °F 52.4 °F 30.27 in NW 3.6 mph 6.9 mph 43.2% 0.00 in 714 W/m2
13:44 77.7 °F 52.4 °F 30.27 in NE 1.6 mph 5.8 mph 41.4% 0.00 in 730.7 W/m2
13:49 79.2 °F 53.2 °F 30.27 in North 2 mph 4.5 mph 40.5% 0.00 in 728.6 W/m2
13:54 79.5 °F 53 °F 30.27 in South 3.2 mph 6.9 mph 39.8% 0.00 in 688.3 W/m2
13:59 79.4 °F 52.4 °F 30.26 in NW 2.2 mph 5.8 mph 39% 0.00 in 725.9 W/m2
14:04 80.1 °F 52.4 °F 30.26 in WNW 2.2 mph 5.8 mph 38.2% 0.00 in 730.8 W/m2
14:09 81.5 °F 53.3 °F 30.25 in West 3.8 mph 8.1 mph 37.7% 0.00 in 724.6 W/m2
14:14 81.1 °F 52.8 °F 30.25 in WNW 3.1 mph 8.1 mph 37.6% 0.00 in 785.8 W/m2
14:19 80.3 °F 52.8 °F 30.25 in SW 2.1 mph 5.8 mph 38.5% 0.00 in 916 W/m2
14:24 80.6 °F 52.6 °F 30.25 in WNW 3.4 mph 9.2 mph 37.8% 0.00 in 872.1 W/m2
14:29 80.6 °F 53.1 °F 30.25 in WNW 5 mph 10.3 mph 38.6% 0.00 in 890.2 W/m2
14:34 81 °F 53.1 °F 30.25 in West 3.4 mph 10.3 mph 38.1% 0.00 in 824.2 W/m2
14:39 79.6 °F 52.3 °F 30.25 in West 2.6 mph 8.1 mph 38.7% 0.00 in 873.7 W/m2
14:44 80.5 °F 52.1 °F 30.25 in WNW 0.7 mph 2.2 mph 37.2% 0.00 in 846.7 W/m2
14:49 82.1 °F 52.6 °F 30.24 in WNW 1.6 mph 8.1 mph 36.2% 0.00 in 826.1 W/m2
14:54 83.1 °F 53 °F 30.24 in WNW 3.9 mph 8.1 mph 35.4% 0.00 in 785 W/m2
14:59 81.7 °F 52.3 °F 30.24 in WNW 3.5 mph 8.1 mph 36.1% 0.00 in 656 W/m2
15:04 81.6 °F 51.9 °F 30.24 in WNW 3.9 mph 9.2 mph 35.7% 0.00 in 644 W/m2
15:09 81.7 °F 51.7 °F 30.23 in West 3.6 mph 6.9 mph 35.4% 0.00 in 600.7 W/m2
15:14 82 °F 50.9 °F 30.23 in West 4 mph 8.1 mph 33.9% 0.00 in 599.9 W/m2
15:19 82.4 °F 50.6 °F 30.23 in WNW 3.4 mph 8.1 mph 33.1% 0.00 in 573.4 W/m2
15:24 82.2 °F 51.1 °F 30.23 in WSW 4.5 mph 9.2 mph 33.9% 0.00 in 596 W/m2
15:29 82.9 °F 50.9 °F 30.23 in SSW 4 mph 9.2 mph 33% 0.00 in 597.7 W/m2
15:34 82.3 °F 51 °F 30.23 in SSW 3.8 mph 9.2 mph 33.7% 0.00 in 587.2 W/m2
15:39 82.4 °F 51 °F 30.23 in SW 1.8 mph 5.8 mph 33.6% 0.00 in 573.7 W/m2
15:44 82.4 °F 51.5 °F 30.23 in WSW 4.4 mph 12.5 mph 34.2% 0.00 in 341.8 W/m2
15:49 80.9 °F 50.6 °F 30.23 in SW 5.4 mph 11.4 mph 34.9% 0.00 in 546.6 W/m2
15:54 81.7 °F 50.7 °F 30.23 in SW 4.1 mph 11.4 mph 34.1% 0.00 in 533.2 W/m2
15:59 82 °F 50.9 °F 30.23 in WSW 3.2 mph 8.1 mph 34% 0.00 in 476.3 W/m2
16:04 83.2 °F 51.5 °F 30.23 in West 4.1 mph 8.1 mph 33.4% 0.00 in 396.3 W/m2
16:09 81.8 °F 51.5 °F 30.22 in SW 5.2 mph 10.3 mph 34.9% 0.00 in 455.8 W/m2
16:14 81.9 °F 51.1 °F 30.22 in WSW 5.2 mph 10.3 mph 34.3% 0.00 in 464.2 W/m2
16:19 82.3 °F 51.2 °F 30.22 in WSW 4.5 mph 10.3 mph 34.1% 0.00 in 439.5 W/m2
16:24 81.9 °F 51.4 °F 30.22 in WSW 3.2 mph 8.1 mph 34.7% 0.00 in 387.7 W/m2
16:29 81.9 °F 52.1 °F 30.22 in SSW 5.4 mph 12.5 mph 35.6% 0.00 in 318.3 W/m2
16:34 80.7 °F 51.6 °F 30.22 in SSW 5 mph 10.3 mph 36.3% 0.00 in 252.4 W/m2
16:39 80.2 °F 51.3 °F 30.23 in SSW 3.8 mph 10.3 mph 36.7% 0.00 in 163.2 W/m2
16:44 79.9 °F 50.8 °F 30.23 in SSW 4.7 mph 9.2 mph 36.3% 0.00 in 133.9 W/m2
16:49 79.2 °F 50.9 °F 30.23 in SSW 4.3 mph 9.2 mph 37.2% 0.00 in 120.9 W/m2
16:54 78.9 °F 51.1 °F 30.22 in SSW 3.2 mph 6.9 mph 37.9% 0.00 in 115.3 W/m2
16:59 79.1 °F 51.4 °F 30.22 in SSW 3.6 mph 8.1 mph 38.2% 0.00 in 125.6 W/m2
17:04 78.9 °F 51.2 °F 30.23 in SW 4.4 mph 9.2 mph 38.1% 0.00 in 128.9 W/m2
17:09 78.9 °F 51.3 °F 30.23 in South 2.9 mph 9.2 mph 38.2% 0.00 in 125.3 W/m2
17:14 79 °F 51.4 °F 30.23 in SSW 3.3 mph 6.9 mph 38.2% 0.00 in 119.6 W/m2
17:19 79 °F 51.3 °F 30.23 in SW 3.6 mph 6.9 mph 38.1% 0.00 in 119.8 W/m2
17:24 78.8 °F 51.1 °F 30.23 in SW 3.5 mph 6.9 mph 38% 0.00 in 120.8 W/m2
17:29 78.6 °F 51.6 °F 30.23 in SSW 4.2 mph 8.1 mph 38.9% 0.00 in 121.4 W/m2
17:34 78.6 °F 51.8 °F 30.23 in SW 4 mph 8.1 mph 39.2% 0.00 in 116.6 W/m2
17:39 78.5 °F 51.8 °F 30.23 in SW 3.4 mph 8.1 mph 39.4% 0.00 in 107.1 W/m2
17:44 78.6 °F 51.6 °F 30.23 in SSW 4.5 mph 8.1 mph 39.1% 0.00 in 101.3 W/m2
17:49 78.3 °F 51.7 °F 30.23 in SW 3.4 mph 9.2 mph 39.5% 0.00 in 98.8 W/m2
17:54 78.4 °F 51.4 °F 30.23 in SW 4 mph 10.3 mph 39.1% 0.00 in 88.4 W/m2
17:59 78 °F 51.3 °F 30.23 in SW 4.3 mph 10.3 mph 39.1% 0.00 in 77.2 W/m2
18:04 77.9 °F 51.3 °F 30.23 in SSW 4 mph 8.1 mph 39.4% 0.00 in 68.8 W/m2
18:09 77.7 °F 50.9 °F 30.23 in SW 4.5 mph 8.1 mph 39% 0.00 in 61.5 W/m2
18:14 77.5 °F 50.7 °F 30.23 in SW 2.9 mph 5.8 mph 39.1% 0.00 in 57 W/m2
18:19 77.5 °F 50.7 °F 30.23 in SW 2.8 mph 5.8 mph 39% 0.00 in 51.1 W/m2
18:24 77.5 °F 51.2 °F 30.24 in SW 3.7 mph 8.1 mph 39.7% 0.00 in 46.5 W/m2
18:29 77.4 °F 51.6 °F 30.24 in SW 1.9 mph 6.9 mph 40.7% 0.00 in 42.8 W/m2
18:34 77.4 °F 51.8 °F 30.24 in SW 2.5 mph 6.9 mph 41% 0.00 in 40.9 W/m2
18:39 77.2 °F 52 °F 30.24 in SW 3.2 mph 8.1 mph 41.4% 0.00 in 33.3 W/m2
18:44 77.1 °F 51.8 °F 30.24 in SSW 3.9 mph 8.1 mph 41.2% 0.00 in 26.3 W/m2
18:49 76.9 °F 52.8 °F 30.24 in SSW 6.8 mph 18.3 mph 43.1% 0.00 in 18 W/m2
18:54 73.4 °F 55.7 °F 30.25 in South 9.5 mph 18.3 mph 53.8% 0.00 in 13 W/m2
18:59 70.8 °F 55.4 °F 30.26 in South 9.8 mph 22.8 mph 58.1% 0.00 in 12.6 W/m2
19:04 69.9 °F 55.5 °F 30.26 in South 8.1 mph 18.3 mph 60.1% 0.00 in 11.3 W/m2
19:09 69.4 °F 55.4 °F 30.26 in SSW 6.7 mph 13.6 mph 61.1% 0.00 in 9.8 W/m2
19:14 69.1 °F 55.6 °F 30.26 in SE 7.3 mph 13.6 mph 62% 0.00 in 7 W/m2
19:19 69.1 °F 55.6 °F 30.26 in South 4.8 mph 11.4 mph 62% 0.00 in 4.2 W/m2
19:24 68.9 °F 55.4 °F 30.26 in SSE 7.2 mph 12.5 mph 62% 0.00 in 2.4 W/m2
19:29 68.8 °F 55.3 °F 30.27 in South 4.4 mph 9.2 mph 62% 0.00 in 1.6 W/m2
19:34 68.9 °F 55.2 °F 30.27 in South 5.8 mph 12.5 mph 61.6% 0.00 in 1 W/m2
19:39 68.9 °F 54.9 °F 30.26 in South 5.3 mph 10.3 mph 61% 0.00 in 0.5 W/m2
19:44 68.9 °F 55.3 °F 30.26 in SSE 5 mph 10.3 mph 61.8% 0.00 in 0.2 W/m2
19:49 68.7 °F 55.2 °F 30.26 in SSE 4.9 mph 11.4 mph 62% 0.00 in 0.1 W/m2
19:54 68.5 °F 55.4 °F 30.26 in SSE 5 mph 10.3 mph 62.9% 0.00 in 0 W/m2
19:59 68.4 °F 55.4 °F 30.26 in SSE 4.7 mph 11.4 mph 63% 0.00 in 0 W/m2
20:04 68.4 °F 55.4 °F 30.26 in South 4.8 mph 11.4 mph 63% 0.00 in 0 W/m2
20:09 68.3 °F 55.3 °F 30.26 in SSE 5.3 mph 10.3 mph 63% 0.00 in 0 W/m2
20:14 68.2 °F 55.2 °F 30.26 in SSE 4.3 mph 9.2 mph 63% 0.00 in 0 W/m2
20:19 68 °F 55.4 °F 30.26 in SSE 5.3 mph 10.3 mph 63.8% 0.00 in 0 W/m2
20:24 68 °F 55.4 °F 30.27 in South 3.9 mph 8.1 mph 64% 0.00 in 0 W/m2
20:29 67.9 °F 55.3 °F 30.27 in SSW 3.4 mph 9.2 mph 64% 0.00 in 0 W/m2
20:34 67.8 °F 55.4 °F 30.27 in South 3.1 mph 9.2 mph 64.5% 0.00 in 0 W/m2
20:39 67.8 °F 55.6 °F 30.27 in SSE 2.7 mph 6.9 mph 65% 0.00 in 0 W/m2
20:44 67.8 °F 55.5 °F 30.27 in South 2.7 mph 6.9 mph 64.7% 0.00 in 0 W/m2
20:49 67.8 °F 55.2 °F 30.28 in SSE 2.9 mph 6.9 mph 64% 0.00 in 0 W/m2
20:54 68 °F 55.2 °F 30.28 in SSE 2.9 mph 5.8 mph 63.5% 0.00 in 0 W/m2
20:59 68 °F 55 °F 30.28 in SSW 2.5 mph 5.8 mph 62.9% 0.00 in 0 W/m2
21:04 68.1 °F 55 °F 30.28 in SSW 2.2 mph 5.8 mph 62.7% 0.00 in 0 W/m2
21:09 68.1 °F 55.1 °F 30.29 in South 2.8 mph 4.5 mph 63% 0.00 in 0 W/m2
21:14 68 °F 55.1 °F 30.29 in SSW 2.1 mph 4.5 mph 63.3% 0.00 in 0 W/m2
21:19 67.9 °F 55.2 °F 30.29 in South 2.7 mph 6.9 mph 63.9% 0.00 in 0 W/m2
21:24 67.8 °F 55 °F 30.29 in South 2.4 mph 6.9 mph 63.6% 0.00 in 0 W/m2
21:29 67.6 °F 54.9 °F 30.29 in South 2.7 mph 5.8 mph 63.4% 0.00 in 0 W/m2
21:34 67.5 °F 54.9 °F 30.29 in South 2 mph 5.8 mph 64% 0.00 in 0 W/m2
21:39 67.4 °F 54.7 °F 30.29 in South 2.3 mph 4.5 mph 63.8% 0.00 in 0 W/m2
21:44 67.3 °F 54.3 °F 30.29 in SSE 1.7 mph 3.4 mph 63% 0.00 in 0 W/m2
21:49 67.1 °F 54.1 °F 30.29 in SSE 2 mph 4.5 mph 63% 0.00 in 0 W/m2
21:54 67.1 °F 53.7 °F 30.29 in SE 2.8 mph 4.5 mph 62.2% 0.00 in 0 W/m2
21:59 67 °F 53.5 °F 30.29 in South 1.4 mph 4.5 mph 62% 0.00 in 0 W/m2
22:04 66.8 °F 53.3 °F 30.29 in SSE 1.6 mph 3.4 mph 62% 0.00 in 0 W/m2
22:09 66.6 °F 53 °F 30.28 in South 1.7 mph 3.4 mph 61.6% 0.00 in 0 W/m2
Santa Fe, NM, USA
Compliments of Weather Underground - 4 mb